Terminal Aerodrome Forecast
Issued by NWS

Home | Current Version | Previous Version | Graphics & Text | Print | Product List | Glossary On
Versions: 1 2 3 4 5 6 7 8 9 10 11 12 13 14 15 16 17 18 19 20 21 22 23 24 25 26 27 28
000
FTUS43 KGRB 232329
TAFRHI
TAF
KRHI 232329Z 2400/2424 19012G20KT P6SM SCT080 BKN120
     FM240200 19007KT P6SM SCT070 BKN100
     FM240900 21005KT P6SM VCSH SCT015 BKN040
      TEMPO 2410/2414 3SM -TSRA BKN015CB
     FM241500 24008G15KT P6SM SCT035 BKN060=

USA.gov is the U.S. government's official web portal to all federal, state and local government web resources and services.